Time;durP1;ratioP1;P1;durP2;ratioP2;P2;SDS_P1;SDS_P2;PMS_P1;PMS_P2;Temp;Humidity;BMP_temperature;BMP_pressure;BME280_temperature;BME280_humidity;BME280_pressure;Samples;Min_cycle;Max_cycle;Signal;HPM_P1;HPM_P2
2023/09/07 00:00:14;;;;;;;15.25;6.05;;;;;;;16.25;100.00;93172.72;5021964;28;20084;-79
2023/09/07 00:02:40;;;;;;;10.57;5.95;;;;;;;16.22;100.00;93170.69;5018505;28;20018;-79
2023/09/07 00:05:07;;;;;;;11.70;5.80;;;;;;;16.20;100.00;93170.19;5021367;28;20083;-79
2023/09/07 00:07:33;;;;;;;12.13;5.97;;;;;;;16.18;100.00;93178.41;5003321;28;20038;-79
2023/09/07 00:09:59;;;;;;;9.73;5.72;;;;;;;16.16;100.00;93174.53;5022149;28;20038;-79
2023/09/07 00:12:25;;;;;;;9.73;6.25;;;;;;;16.16;100.00;93174.53;5021776;28;20034;-79
2023/09/07 00:14:52;;;;;;;10.23;5.82;;;;;;;16.14;100.00;93168.78;5021782;28;20049;-79
2023/09/07 00:17:18;;;;;;;14.23;6.22;;;;;;;16.11;100.00;93164.09;5004187;28;20522;-79
2023/09/07 00:19:44;;;;;;;10.30;6.70;;;;;;;16.08;100.00;93168.13;5021525;28;20097;-79
2023/09/07 00:22:09;;;;;;;11.73;6.22;;;;;;;16.05;100.00;93162.66;5021980;28;20037;-79
2023/09/07 00:24:35;;;;;;;9.60;6.03;;;;;;;16.02;100.00;93175.38;5021379;28;20044;-79
2023/09/07 00:27:00;;;;;;;8.80;6.20;;;;;;;16.00;100.00;93158.28;5021967;28;20093;-79
2023/09/07 00:29:26;;;;;;;8.93;6.10;;;;;;;15.98;100.00;93158.59;5021434;28;20046;-79
2023/09/07 00:31:51;;;;;;;10.00;5.85;;;;;;;15.96;100.00;93158.13;5003532;28;20076;-79
2023/09/07 00:34:17;;;;;;;11.60;6.30;;;;;;;15.96;100.00;93167.91;5003296;28;20049;-79
2023/09/07 00:36:42;;;;;;;11.23;6.53;;;;;;;15.92;100.00;93165.09;4986700;28;20129;-79
2023/09/07 00:39:08;;;;;;;9.25;5.90;;;;;;;15.93;100.00;93169.28;5011448;28;20073;-79
2023/09/07 00:41:34;;;;;;;12.77;6.50;;;;;;;15.90;100.00;93171.78;5001838;28;20094;-79
2023/09/07 00:43:59;;;;;;;11.25;6.13;;;;;;;15.86;100.00;93161.03;4969217;28;20392;-79
2023/09/07 00:46:25;;;;;;;14.68;6.40;;;;;;;15.88;100.00;93160.72;4989084;28;20107;-79
2023/09/07 00:48:51;;;;;;;13.57;6.72;;;;;;;15.90;100.00;93163.84;5003147;28;20076;-79
2023/09/07 00:51:17;;;;;;;10.70;6.55;;;;;;;15.88;100.00;93166.00;5020229;28;20041;-79
2023/09/07 00:53:43;;;;;;;11.65;6.00;;;;;;;15.89;100.00;93165.69;5001307;28;20057;-79
2023/09/07 00:56:09;;;;;;;11.25;6.45;;;;;;;15.87;100.00;93170.47;5001909;28;20034;-79
2023/09/07 00:58:36;;;;;;;10.55;6.00;;;;;;;15.83;100.00;93169.56;5020515;28;20030;-79
2023/09/07 01:01:02;;;;;;;9.55;6.03;;;;;;;15.81;100.00;93171.72;5021631;28;20053;-79
2023/09/07 01:03:28;;;;;;;9.00;5.80;;;;;;;15.81;100.00;93174.34;5003830;28;20068;-79
2023/09/07 01:06:15;;;;;;;10.60;6.25;;;;;;;15.79;100.00;93168.59;5001521;28;20332;-79
2023/09/07 01:08:48;;;;;;;10.32;6.07;;;;;;;15.79;100.00;93165.94;5003442;28;20367;-79
2023/09/07 01:11:16;;;;;;;;;;;;;;;15.80;100.00;93162.22;5020118;28;20048;-79
2023/09/07 01:13:43;;;;;;;9.55;5.80;;;;;;;15.76;100.00;93155.97;5020100;28;19945;-79
2023/09/07 01:16:13;;;;;;;9.05;6.38;;;;;;;15.77;100.00;93165.47;5002993;28;20046;-79
2023/09/07 01:18:39;;;;;;;11.13;6.15;;;;;;;15.72;100.00;93155.81;5002689;28;20040;-79
2023/09/07 01:21:08;;;;;;;10.25;6.65;;;;;;;15.73;100.00;93156.59;4983008;28;20481;-79
2023/09/07 01:23:39;;;;;;;9.23;6.18;;;;;;;15.70;100.00;93157.94;5008355;28;20112;-79
2023/09/07 01:26:07;;;;;;;11.35;6.20;;;;;;;15.65;100.00;93159.91;4999861;28;20033;-79
2023/09/07 01:28:33;;;;;;;10.25;6.10;;;;;;;15.70;100.00;93157.19;4972879;28;20029;-79
2023/09/07 01:30:59;;;;;;;11.40;6.35;;;;;;;15.66;100.00;93151.72;5007923;28;20069;-79
2023/09/07 01:33:24;;;;;;;10.75;6.18;;;;;;;15.70;100.00;93159.81;5018553;28;20038;-79
2023/09/07 01:35:51;;;;;;;10.75;6.15;;;;;;;15.69;100.00;93150.31;5003807;28;20262;-79
2023/09/07 01:38:17;;;;;;;9.07;6.13;;;;;;;15.68;100.00;93148.78;5021117;28;20437;-79
2023/09/07 01:40:43;;;;;;;9.57;6.25;;;;;;;15.68;100.00;93154.06;5002544;28;20034;-79
2023/09/07 01:43:09;;;;;;;11.93;6.57;;;;;;;15.67;100.00;93157.75;4983882;28;20045;-79
2023/09/07 01:45:35;;;;;;;9.57;6.22;;;;;;;15.64;100.00;93150.44;5020997;28;20026;-79
2023/09/07 01:48:00;;;;;;;12.82;6.32;;;;;;;15.65;100.00;93154.63;5003322;28;20034;-79
2023/09/07 01:50:26;;;;;;;9.68;6.45;;;;;;;15.61;100.00;93149.97;5000384;28;20101;-79
2023/09/07 01:52:52;;;;;;;9.07;5.95;;;;;;;15.61;100.00;93147.34;5014836;28;20034;-79
2023/09/07 01:55:18;;;;;;;10.05;6.07;;;;;;;15.61;100.00;93155.25;5020182;28;20052;-79
2023/09/07 01:57:43;;;;;;;12.20;6.68;;;;;;;15.59;100.00;93157.41;5002446;28;20049;-78
2023/09/07 02:00:10;;;;;;;11.55;6.40;;;;;;;15.57;100.00;93159.56;5001761;28;20503;-79
2023/09/07 02:02:38;;;;;;;10.45;6.60;;;;;;;15.56;100.00;93152.75;5018610;28;20034;-79
2023/09/07 02:05:04;;;;;;;11.10;6.72;;;;;;;15.56;100.00;93152.75;5020065;28;20514;-79
2023/09/07 02:07:30;;;;;;;9.10;6.28;;;;;;;15.56;100.00;93155.38;5002148;28;20038;-79
2023/09/07 02:09:55;;;;;;;10.35;6.53;;;;;;;15.54;100.00;93162.81;5001231;28;20431;-79
2023/09/07 02:12:21;;;;;;;9.25;6.18;;;;;;;15.52;100.00;93153.63;5003088;28;20036;-79
2023/09/07 02:14:47;;;;;;;11.88;5.80;;;;;;;15.54;100.00;93154.13;5022910;28;20046;-79
2023/09/07 02:17:17;;;;;;;8.75;5.90;;;;;;;15.52;100.00;93164.97;5022937;28;20097;-79
2023/09/07 02:19:44;;;;;;;10.82;5.80;;;;;;;15.48;100.00;93165.88;4989278;28;20049;-79
2023/09/07 02:22:10;;;;;;;12.45;6.75;;;;;;;15.45;100.00;93164.59;5004409;28;20030;-79
2023/09/07 02:24:36;;;;;;;13.73;6.22;;;;;;;15.42;100.00;93165.19;5005299;28;20050;-79
2023/09/07 02:27:01;;;;;;;11.07;6.72;;;;;;;15.40;100.00;93160.22;5022592;28;20049;-79
2023/09/07 02:29:27;;;;;;;9.45;6.22;;;;;;;15.39;100.00;93163.16;5020886;28;20435;-79
2023/09/07 02:31:53;;;;;;;9.68;6.30;;;;;;;15.40;100.00;93170.78;5004583;28;20243;-79
2023/09/07 02:34:19;;;;;;;10.20;6.57;;;;;;;15.41;100.00;93168.91;5004286;28;20575;-79
2023/09/07 02:36:45;;;;;;;9.95;6.38;;;;;;;15.42;100.00;93167.81;4994374;28;20069;-79
2023/09/07 02:39:11;;;;;;;13.13;7.28;;;;;;;15.43;100.00;93168.63;4985760;28;20042;-79
2023/09/07 02:41:38;;;;;;;9.43;6.38;;;;;;;15.43;100.00;93169.41;4987455;28;20076;-79
2023/09/07 02:44:04;;;;;;;11.43;7.20;;;;;;;15.41;100.00;93168.91;5003732;28;20126;-79
2023/09/07 02:46:30;;;;;;;12.15;6.90;;;;;;;15.42;100.00;93178.38;5004663;28;20038;-79
2023/09/07 02:48:59;;;;;;;9.27;6.03;;;;;;;15.40;100.00;93170.78;5004196;28;20081;-79
2023/09/07 02:51:25;;;;;;;9.10;6.28;;;;;;;15.40;100.00;93170.78;5005166;28;20097;-79
2023/09/07 02:53:53;;;;;;;9.75;6.50;;;;;;;15.40;100.00;93175.25;4988471;28;20045;-79
2023/09/07 02:56:19;;;;;;;10.70;6.28;;;;;;;15.39;100.00;93173.72;5004848;28;20148;-79
2023/09/07 02:58:45;;;;;;;9.77;5.90;;;;;;;15.39;100.00;93174.47;5005299;28;20069;-79
2023/09/07 03:01:13;;;;;;;12.40;6.75;;;;;;;15.37;100.00;93170.59;5004041;28;20052;-79
2023/09/07 03:03:41;;;;;;;9.65;6.25;;;;;;;15.36;100.00;93166.41;5005102;28;20052;-79
2023/09/07 03:06:14;;;;;;;10.35;6.20;;;;;;;15.37;100.00;93173.22;5004720;28;20037;-79
2023/09/07 03:08:42;;;;;;;9.15;6.20;;;;;;;15.38;100.00;93177.44;4968669;28;20453;-80
2023/09/07 03:11:08;;;;;;;9.60;6.35;;;;;;;15.36;100.00;93169.03;5003790;28;20037;-79
2023/09/07 03:13:34;;;;;;;10.57;6.75;;;;;;;15.35;100.00;93172.75;5005127;28;20069;-79
2023/09/07 03:16:00;;;;;;;11.48;6.65;;;;;;;15.34;100.00;93176.47;5003441;28;20034;-79
2023/09/07 03:18:26;;;;;;;10.98;7.05;;;;;;;15.35;100.00;93172.75;5022976;28;20049;-78
2023/09/07 03:20:54;;;;;;;11.18;6.38;;;;;;;15.35;100.00;93168.25;5004353;28;20037;-79
2023/09/07 03:23:20;;;;;;;14.88;7.50;;;;;;;15.35;100.00;93172.75;5003570;28;20033;-79
2023/09/07 03:25:45;;;;;;;9.68;6.57;;;;;;;15.33;100.00;93169.63;5003357;28;20128;-79
2023/09/07 03:28:11;;;;;;;11.05;6.80;;;;;;;15.31;100.00;93171.78;5004474;28;20030;-79
2023/09/07 03:30:38;;;;;;;12.35;7.05;;;;;;;15.31;100.00;93174.41;4985915;28;20046;-79
2023/09/07 03:33:05;;;;;;;10.18;6.78;;;;;;;15.30;100.00;93175.50;4988014;28;20123;-79
2023/09/07 03:35:31;;;;;;;13.77;6.80;;;;;;;15.26;100.00;93169.25;4971665;28;20104;-79
2023/09/07 03:37:57;;;;;;;10.25;7.00;;;;;;;15.25;100.00;93175.63;5003400;28;20046;-79
2023/09/07 03:40:23;;;;;;;10.63;6.80;;;;;;;15.20;100.00;93169.38;5003293;28;20045;-79
2023/09/07 03:42:49;;;;;;;11.60;7.05;;;;;;;15.23;100.00;93170.63;5004901;28;20022;-79
2023/09/07 03:45:15;;;;;;;11.88;7.32;;;;;;;15.24;100.00;93166.13;5005115;28;20057;-79
2023/09/07 03:47:41;;;;;;;10.82;6.60;;;;;;;15.24;100.00;93172.19;4971958;28;20042;-79
2023/09/07 03:50:09;;;;;;;10.07;6.68;;;;;;;15.24;100.00;93176.69;5003824;28;20476;-79
2023/09/07 03:52:34;;;;;;;11.60;7.15;;;;;;;15.23;100.00;93175.91;4988244;28;20100;-79
2023/09/07 03:55:03;;;;;;;13.40;7.22;;;;;;;15.24;100.00;93179.31;4989065;28;20559;-79
2023/09/07 03:57:29;;;;;;;11.27;6.80;;;;;;;15.23;100.00;93169.88;5004170;28;20053;-79
2023/09/07 03:59:56;;;;;;;9.90;7.03;;;;;;;15.22;100.00;93169.09;4979291;28;20108;-79
2023/09/07 04:02:22;;;;;;;13.13;6.43;;;;;;;15.20;100.00;93164.09;5022346;28;20030;-79
2023/09/07 04:04:52;;;;;;;14.60;6.20;;;;;;;15.19;100.00;93167.81;5022604;28;20038;-79
2023/09/07 04:07:17;;;;;;;18.63;6.63;;;;;;;15.19;100.00;93172.31;5020380;28;20471;-79
2023/09/07 04:09:44;;;;;;;10.30;6.40;;;;;;;15.17;100.00;93161.28;5002402;28;20021;-79
2023/09/07 04:12:10;;;;;;;15.55;7.78;;;;;;;15.15;100.00;93164.22;5000018;28;20081;-79
2023/09/07 04:14:35;;;;;;;11.55;6.90;;;;;;;15.14;100.00;93167.16;5020406;28;20046;-79
2023/09/07 04:17:01;;;;;;;12.05;7.00;;;;;;;15.12;100.00;93156.13;5003305;28;20040;-79
2023/09/07 04:19:27;;;;;;;10.98;7.45;;;;;;;15.12;100.00;93159.53;5003007;28;20038;-79
2023/09/07 04:21:52;;;;;;;11.57;6.68;;;;;;;15.11;100.00;93162.47;5002619;28;20052;-79
2023/09/07 04:24:19;;;;;;;10.15;7.15;;;;;;;15.08;100.00;93163.06;5002105;28;20056;-79
2023/09/07 04:26:44;;;;;;;12.45;6.72;;;;;;;15.06;100.00;93165.97;5003129;28;20132;-79
2023/09/07 04:29:11;;;;;;;10.77;6.95;;;;;;;15.06;100.00;93159.94;5019444;28;20046;-79
2023/09/07 04:31:37;;;;;;;11.57;6.93;;;;;;;15.06;100.00;93154.66;5001606;28;20065;-79
2023/09/07 04:34:03;;;;;;;13.38;7.60;;;;;;;15.04;100.00;93160.25;4994823;28;20041;-79
2023/09/07 04:36:29;;;;;;;10.52;6.88;;;;;;;15.02;100.00;93159.75;4993405;28;20026;-79
2023/09/07 04:38:55;;;;;;;11.30;7.30;;;;;;;15.02;100.00;93154.50;4995152;28;20110;-79
2023/09/07 04:41:20;;;;;;;13.32;6.90;;;;;;;14.97;100.00;93158.03;4985104;28;20038;-85
2023/09/07 04:43:46;;;;;;;12.43;7.22;;;;;;;14.99;100.00;93165.63;4980705;28;20037;-81
2023/09/07 04:46:13;;;;;;;10.07;6.93;;;;;;;14.99;100.00;93173.53;4982212;28;20030;-84
2023/09/07 04:48:46;;;;;;;11.85;6.68;;;;;;;14.98;100.00;93169.34;5001313;28;20049;-83
2023/09/07 04:51:12;;;;;;;14.48;7.45;;;;;;;14.99;100.00;93168.25;4995854;28;20104;-84
2023/09/07 04:53:39;;;;;;;9.68;6.60;;;;;;;15.02;100.00;93169.50;4997731;28;20102;-84
2023/09/07 04:56:10;;;;;;;13.52;6.93;;;;;;;15.05;100.00;93171.56;4995973;28;20042;-85
2023/09/07 04:58:37;;;;;;;;;;;;;;;15.05;100.00;93169.72;4999200;28;20050;-84
2023/09/07 05:01:08;;;;;;;10.35;6.63;;;;;;;15.06;100.00;93167.84;5015364;28;20167;-85
2023/09/07 05:03:43;;;;;;;11.90;6.50;;;;;;;15.08;100.00;93163.84;4999358;28;20455;-85
2023/09/07 05:06:11;;;;;;;13.55;6.70;;;;;;;15.09;100.00;93165.41;5001922;28;20034;-83
2023/09/07 05:08:37;;;;;;;9.80;6.60;;;;;;;15.07;100.00;93167.56;5017706;28;20048;-84
2023/09/07 05:11:03;;;;;;;11.77;6.47;;;;;;;15.08;100.00;93166.47;5003872;28;20037;-84
2023/09/07 05:13:30;;;;;;;11.82;6.65;;;;;;;15.11;100.00;93167.75;4988004;28;20042;-84
2023/09/07 05:16:02;;;;;;;9.95;6.20;;;;;;;15.08;100.00;93166.47;4986638;28;20034;-84
2023/09/07 05:18:28;;;;;;;11.10;6.18;;;;;;;15.07;100.00;93167.56;5001800;28;20116;-84
2023/09/07 05:20:54;;;;;;;8.75;5.78;;;;;;;15.10;100.00;93172.22;5003322;28;20038;-83
2023/09/07 05:23:21;;;;;;;9.25;5.63;;;;;;;15.14;100.00;93175.84;4999515;28;20032;-82
2023/09/07 05:25:55;;;;;;;11.35;5.85;;;;;;;15.19;100.00;93169.66;5000605;28;20052;-82
2023/09/07 05:28:23;;;;;;;9.48;5.88;;;;;;;15.21;100.00;93172.78;4993370;28;20053;-83
2023/09/07 05:30:50;;;;;;;9.43;5.25;;;;;;;15.31;100.00;93177.06;5000604;28;20567;-82
2023/09/07 05:33:17;;;;;;;8.45;5.40;;;;;;;15.38;100.00;93177.44;4999598;28;20053;-82
2023/09/07 05:35:43;;;;;;;8.48;5.50;;;;;;;15.45;100.00;93177.81;5016456;28;20373;-81
2023/09/07 05:38:09;;;;;;;9.52;5.75;;;;;;;15.54;100.00;93176.00;4998092;28;20070;-82
2023/09/07 05:40:39;;;;;;;15.45;5.90;;;;;;;15.65;100.00;93181.03;4989152;28;20065;-82
2023/09/07 05:43:05;;;;;;;11.25;6.47;;;;;;;15.75;100.00;93180.81;4999262;28;20045;-83
2023/09/07 05:45:34;;;;;;;14.13;6.45;;;;;;;15.84;100.00;93189.56;5005804;28;20092;-82
2023/09/07 05:47:59;;;;;;;11.35;6.35;;;;;;;15.98;100.00;93198.19;4986137;28;20042;-82
2023/09/07 05:50:25;;;;;;;13.98;5.82;;;;;;;16.12;100.00;93194.69;5003221;28;20061;-82
2023/09/07 05:52:51;;;;;;;12.98;6.07;;;;;;;16.24;100.00;93184.38;5021445;28;20026;-81
2023/09/07 05:55:17;;;;;;;8.45;5.55;;;;;;;16.32;100.00;93183.59;5004512;28;20041;-81
2023/09/07 05:57:42;;;;;;;10.85;6.18;;;;;;;16.45;100.00;93190.66;4989129;28;20034;-82
2023/09/07 06:00:09;;;;;;;8.80;5.90;;;;;;;16.58;100.00;93185.59;4981038;28;20417;-81
2023/09/07 06:03:36;;;;;;;10.40;5.85;;;;;;;17.39;100.00;93189.66;4974343;28;20082;-81
2023/09/07 06:06:02;;;;;;;12.98;5.85;;;;;;;18.57;100.00;93184.00;4982387;28;20042;-80
2023/09/07 06:08:28;;;;;;;10.77;5.90;;;;;;;19.64;100.00;93184.63;4998613;28;20093;-80
2023/09/07 06:10:54;;;;;;;9.43;5.57;;;;;;;20.52;100.00;93189.91;5001662;28;20488;-83
2023/09/07 06:13:49;;;;;;;10.90;5.85;;;;;;;21.47;100.00;93185.22;4986068;28;20039;-83
2023/09/07 06:16:14;;;;;;;9.63;5.65;;;;;;;22.28;100.00;93189.72;5002298;28;20446;-84
2023/09/07 06:18:40;;;;;;;10.90;5.53;;;;;;;22.81;100.00;93193.72;5002509;28;20120;-84
2023/09/07 06:25:00;;;;;;;9.13;4.70;;;;;;;24.57;100.00;93192.00;5003092;28;20042;-84
2023/09/07 06:27:29;;;;;;;8.18;4.75;;;;;;;24.87;100.00;93192.09;4984491;28;20038;-83
2023/09/07 06:29:55;;;;;;;9.65;5.78;;;;;;;24.92;97.04;93191.78;4984283;28;20030;-84
2023/09/07 06:32:21;;;;;;;8.50;5.40;;;;;;;25.01;99.09;93196.91;5000924;28;20035;-85
2023/09/07 06:35:07;;;;;;;11.75;5.10;;;;;;;25.36;93.46;93189.78;5001634;28;20044;-84
2023/09/07 06:37:33;;;;;;;10.43;5.25;;;;;;;25.81;92.17;93185.41;5001270;28;20449;-84
2023/09/07 06:39:58;;;;;;;9.73;5.47;;;;;;;26.35;89.58;93186.78;4985141;28;20026;-84
2023/09/07 06:42:25;;;;;;;11.13;5.18;;;;;;;27.10;89.03;93192.03;5000531;28;20042;-83
2023/09/07 06:45:00;;;;;;;10.02;5.20;;;;;;;27.69;76.93;93192.03;4997192;28;20042;-84
2023/09/07 06:47:25;;;;;;;9.55;5.40;;;;;;;27.63;68.36;93194.34;4975036;28;20038;-83
2023/09/07 06:49:51;;;;;;;10.25;5.47;;;;;;;27.33;71.56;93200.66;4998972;28;20803;-83
2023/09/07 06:52:17;;;;;;;10.75;5.40;;;;;;;27.17;72.22;93198.22;4987025;28;20039;-82
2023/09/07 06:54:42;;;;;;;10.10;5.30;;;;;;;27.10;70.00;93189.38;5003887;28;20062;-82
2023/09/07 06:57:08;;;;;;;12.90;5.90;;;;;;;26.68;72.30;93185.97;4987254;28;20034;-82
2023/09/07 06:59:35;;;;;;;9.13;5.63;;;;;;;26.83;74.18;93188.78;4987090;28;20077;-82
2023/09/07 07:02:01;;;;;;;9.93;5.20;;;;;;;26.77;73.28;93191.81;5014137;28;20173;-82
2023/09/07 07:04:27;;;;;;;11.30;5.82;;;;;;;26.17;75.84;93184.69;4974293;28;20048;-82
2023/09/07 07:06:54;;;;;;;10.50;5.93;;;;;;;25.99;75.96;93188.31;5015346;28;20033;-81
2023/09/07 07:09:20;;;;;;;11.50;6.10;;;;;;;25.88;75.26;93194.31;5011115;28;20137;-82
2023/09/07 07:11:45;;;;;;;8.85;5.35;;;;;;;25.05;73.88;93199.63;5017595;28;20057;-82
2023/09/07 07:14:11;;;;;;;10.23;5.97;;;;;;;24.51;79.98;93194.19;5007561;28;20030;-81
2023/09/07 07:16:37;;;;;;;13.93;5.38;;;;;;;24.26;80.29;93196.38;4991118;28;20041;-81
2023/09/07 07:19:03;;;;;;;9.35;5.07;;;;;;;24.18;79.18;93193.94;5007047;28;20030;-81
2023/09/07 07:21:29;;;;;;;12.13;5.65;;;;;;;24.07;82.58;93199.06;5006692;28;20034;-81
2023/09/07 07:23:55;;;;;;;10.07;5.88;;;;;;;23.52;82.66;93209.03;5007293;28;20105;-82
2023/09/07 07:26:21;;;;;;;11.02;5.70;;;;;;;23.18;86.20;93198.78;5006777;28;20030;-81
2023/09/07 07:28:48;;;;;;;8.93;5.20;;;;;;;23.17;88.63;93201.78;5006090;28;20133;-80
2023/09/07 07:31:13;;;;;;;8.93;5.07;;;;;;;23.20;88.60;93195.75;5006033;28;20128;-81
2023/09/07 07:33:43;;;;;;;11.40;5.38;;;;;;;23.07;93.25;93200.41;4988504;28;20045;-82
2023/09/07 07:36:09;;;;;;;8.27;5.05;;;;;;;23.33;89.23;93199.06;4974711;28;20034;-82
2023/09/07 07:38:35;;;;;;;15.40;5.53;;;;;;;23.05;89.27;93203.44;5004939;28;20137;-81
2023/09/07 07:41:01;;;;;;;10.50;5.32;;;;;;;23.18;90.53;93200.66;4979570;28;20124;-82
2023/09/07 07:43:26;;;;;;;10.68;5.25;;;;;;;22.94;93.41;93214.97;5018986;28;20034;-81
2023/09/07 07:45:54;;;;;;;12.00;5.18;;;;;;;22.72;95.54;93205.66;4957542;28;20030;-81
2023/09/07 07:48:21;;;;;;;10.40;5.63;;;;;;;22.80;97.87;93213.50;4986729;28;20061;-81
2023/09/07 07:50:46;;;;;;;7.78;5.47;;;;;;;22.94;95.87;93212.28;4986262;28;20042;-81
2023/09/07 07:53:14;;;;;;;11.25;5.90;;;;;;;22.63;97.53;93203.94;4970531;28;20034;-81
2023/09/07 07:55:41;;;;;;;9.57;6.00;;;;;;;22.47;99.53;93197.81;4970891;28;20045;-81
2023/09/07 07:58:11;;;;;;;10.82;5.30;;;;;;;22.37;100.00;93201.00;5021766;28;20046;-81
2023/09/07 08:00:40;;;;;;;9.80;5.88;;;;;;;22.21;100.00;93201.75;4996797;28;20046;-81
2023/09/07 08:03:07;;;;;;;8.57;5.55;;;;;;;22.06;100.00;93204.34;5009269;28;20034;-80
2023/09/07 08:05:34;;;;;;;9.27;5.80;;;;;;;22.55;100.00;93204.13;5004933;28;20057;-81
2023/09/07 08:08:01;;;;;;;11.77;5.97;;;;;;;22.31;100.00;93205.03;5009997;28;20099;-80
2023/09/07 08:10:27;;;;;;;11.68;5.85;;;;;;;22.30;100.00;93201.59;4987053;28;20038;-81
2023/09/07 08:12:55;;;;;;;13.35;6.03;;;;;;;22.49;100.00;93206.25;5008155;28;20034;-81
2023/09/07 08:15:22;;;;;;;12.07;5.72;;;;;;;22.61;99.10;93206.19;4989848;28;20052;-81
2023/09/07 08:17:48;;;;;;;9.95;5.68;;;;;;;22.54;97.81;93206.00;5003081;28;20034;-81
2023/09/07 08:20:15;;;;;;;11.63;6.15;;;;;;;22.43;100.00;93207.63;5022153;28;20141;-79
2023/09/07 08:22:42;;;;;;;10.43;5.93;;;;;;;22.35;100.00;93195.22;5006159;28;20049;-81
2023/09/07 08:25:09;;;;;;;11.40;6.30;;;;;;;22.50;98.56;93210.47;5005015;28;20034;-81
2023/09/07 08:27:35;;;;;;;9.07;5.20;;;;;;;22.66;97.74;93216.59;5005044;28;20022;-81
2023/09/07 08:30:01;;;;;;;10.88;5.82;;;;;;;22.74;97.99;93222.09;5023313;28;20104;-81
2023/09/07 08:32:27;;;;;;;14.05;5.70;;;;;;;22.75;95.26;93219.09;5022373;28;20038;-81
2023/09/07 08:34:56;;;;;;;10.60;5.40;;;;;;;22.68;95.89;93213.59;5015902;28;20105;-81
2023/09/07 08:37:22;;;;;;;7.65;5.50;;;;;;;22.63;96.05;93213.84;5022067;28;20044;-81
2023/09/07 08:39:48;;;;;;;9.45;5.50;;;;;;;22.47;94.69;93219.16;5022862;28;20390;-81
2023/09/07 08:42:14;;;;;;;11.55;6.03;;;;;;;22.49;99.02;93216.91;5023010;28;20049;-81
2023/09/07 08:44:42;;;;;;;8.93;5.78;;;;;;;22.67;96.98;93217.38;5021691;28;20034;-80
2023/09/07 08:47:08;;;;;;;9.18;5.60;;;;;;;22.57;92.27;93213.31;5023861;28;20502;-81
2023/09/07 08:49:35;;;;;;;11.10;5.45;;;;;;;22.40;98.48;93218.97;5006144;28;20558;-80
2023/09/07 08:52:04;;;;;;;11.27;5.90;;;;;;;22.43;97.51;93223.66;5021451;28;20022;-81
2023/09/07 08:54:31;;;;;;;11.88;5.75;;;;;;;22.23;98.78;93215.50;5014049;28;20072;-81
2023/09/07 08:56:58;;;;;;;8.00;5.40;;;;;;;22.58;95.22;93214.09;5003629;28;20034;-81
2023/09/07 08:59:24;;;;;;;10.32;5.75;;;;;;;22.48;95.07;93218.06;5011016;28;20106;-80
2023/09/07 09:01:49;;;;;;;9.55;5.57;;;;;;;22.24;97.98;93211.72;5022577;28;20062;-81
2023/09/07 09:04:15;;;;;;;10.35;5.90;;;;;;;22.40;95.30;93221.66;5021976;28;20026;-81
2023/09/07 09:06:41;;;;;;;8.65;4.88;;;;;;;22.79;97.69;93219.19;5022818;28;20034;-81
2023/09/07 09:09:07;;;;;;;13.27;6.40;;;;;;;22.81;95.92;93217.72;5023490;28;20080;-80
2023/09/07 09:11:32;;;;;;;10.60;6.20;;;;;;;;;;5022734;28;20037;-81
2023/09/07 09:13:58;;;;;;;9.05;6.10;;;;;;;22.98;97.30;93219.25;5023964;28;20034;-81
2023/09/07 09:16:23;;;;;;;11.63;6.03;;;;;;;22.99;94.72;93207.50;5023128;28;20215;-81
2023/09/07 09:18:54;;;;;;;9.20;6.45;;;;;;;23.11;92.34;93219.97;5005995;28;20049;-81
2023/09/07 09:21:21;;;;;;;9.43;5.85;;;;;;;23.20;92.56;93209.13;5030027;28;20072;-82
2023/09/07 09:23:52;;;;;;;9.10;5.90;;;;;;;23.18;92.06;93209.44;5027805;28;20021;-81
2023/09/07 09:26:19;;;;;;;11.45;6.00;;;;;;;23.19;93.69;93211.00;5029105;28;20030;-79
2023/09/07 09:28:45;;;;;;;10.18;5.88;;;;;;;22.91;94.10;93211.09;5029255;28;20068;-81
2023/09/07 09:31:14;;;;;;;9.88;5.97;;;;;;;23.07;92.52;93197.75;5029227;28;20041;-81
2023/09/07 09:33:47;;;;;;;8.90;5.93;;;;;;;23.15;90.50;93204.81;5032504;28;20443;-80
2023/09/07 09:36:14;;;;;;;9.43;5.60;;;;;;;23.22;91.12;93198.84;5028473;28;20618;-81
2023/09/07 09:38:39;;;;;;;8.27;5.70;;;;;;;23.17;87.70;93207.13;5015681;28;20058;-81
2023/09/07 09:41:06;;;;;;;9.55;5.80;;;;;;;23.36;87.24;93204.50;5029747;28;20060;-81
2023/09/07 09:43:31;;;;;;;10.40;6.25;;;;;;;23.35;86.86;93205.63;5029899;28;20038;-81
2023/09/07 09:45:59;;;;;;;9.15;6.20;;;;;;;23.25;87.53;93203.50;5009149;28;20053;-81
2023/09/07 09:48:27;;;;;;;11.45;5.75;;;;;;;23.10;91.35;93202.38;5025022;28;20044;-81
2023/09/07 09:50:54;;;;;;;6.82;4.55;;;;;;;23.20;90.13;93193.84;5024806;28;20049;-82
2023/09/07 09:53:20;;;;;;;8.70;6.15;;;;;;;23.26;91.61;93194.38;5017126;28;20058;-82
2023/09/07 09:55:53;;;;;;;12.35;6.18;;;;;;;23.25;90.51;93195.47;5006315;28;20041;-82
2023/09/07 09:58:19;;;;;;;11.85;6.25;;;;;;;23.00;93.12;93200.25;5019100;28;20034;-81
2023/09/07 10:00:48;;;;;;;10.75;6.28;;;;;;;23.15;93.24;93191.47;5003571;28;20062;-81
2023/09/07 10:03:33;;;;;;;10.13;6.00;;;;;;;23.24;93.02;93191.28;5006122;28;20070;-80
2023/09/07 10:06:09;;;;;;;8.95;6.05;;;;;;;23.25;90.63;93184.78;5006345;28;20125;-82
2023/09/07 10:08:52;;;;;;;9.02;5.35;;;;;;;23.05;88.36;93184.75;4992695;28;20069;-79
2023/09/07 10:11:30;;;;;;;10.98;6.13;;;;;;;23.13;89.10;93185.69;4988728;28;20488;-83
2023/09/07 10:14:03;;;;;;;10.25;6.38;;;;;;;23.18;88.98;93181.97;5005279;28;20039;-83
2023/09/07 10:16:29;;;;;;;10.45;6.90;;;;;;;23.12;87.28;93188.69;5005615;28;20041;-82
2023/09/07 10:18:55;;;;;;;11.25;6.82;;;;;;;23.25;89.75;93182.91;5008096;28;20030;-81
2023/09/07 10:21:25;;;;;;;13.20;7.53;;;;;;;23.10;89.33;93185.59;5009793;28;20042;-82
2023/09/07 10:23:52;;;;;;;12.05;7.00;;;;;;;22.87;90.75;93178.19;5009548;28;20034;-82
2023/09/07 10:26:21;;;;;;;10.25;6.00;;;;;;;22.92;92.63;93183.28;5016570;28;20044;-81
2023/09/07 10:28:47;;;;;;;10.80;6.45;;;;;;;22.90;89.60;93179.38;5007107;28;20042;-81
2023/09/07 10:31:15;;;;;;;11.05;6.47;;;;;;;23.16;90.37;93179.66;5004036;28;20102;-79
2023/09/07 10:33:41;;;;;;;11.82;7.13;;;;;;;23.55;87.97;93178.94;5000153;28;20130;-81
2023/09/07 10:36:07;;;;;;;10.23;5.88;;;;;;;23.61;85.78;93175.63;4997890;28;20061;-80
2023/09/07 10:38:34;;;;;;;11.38;6.55;;;;;;;23.56;86.01;93165.22;4985176;28;20057;-82
2023/09/07 10:41:02;;;;;;;16.48;7.07;;;;;;;23.37;86.67;93171.34;4999734;28;20042;-80
2023/09/07 10:43:31;;;;;;;9.90;6.43;;;;;;;23.52;85.27;93161.72;5001279;28;20037;-80
2023/09/07 10:46:00;;;;;;;14.18;5.88;;;;;;;23.70;85.27;93170.84;4995406;28;20195;-80
2023/09/07 10:48:28;;;;;;;9.18;6.32;;;;;;;23.78;83.74;93163.78;5005161;28;20121;-80
2023/09/07 10:50:56;;;;;;;9.68;5.93;;;;;;;23.56;84.16;93170.56;4999198;28;20038;-81
2023/09/07 10:53:28;;;;;;;8.10;5.55;;;;;;;23.62;84.62;93155.03;5000722;28;20508;-79
2023/09/07 10:55:56;;;;;;;8.00;5.82;;;;;;;23.66;85.50;93166.56;5000629;28;20037;-81
2023/09/07 10:58:31;;;;;;;10.18;6.15;;;;;;;23.76;86.67;93151.91;4993331;28;20029;-82
2023/09/07 11:00:57;;;;;;;8.85;5.80;;;;;;;23.92;83.69;93157.19;5000718;28;20118;-83
2023/09/07 11:03:28;;;;;;;10.15;6.53;;;;;;;23.90;82.03;93152.94;5002562;28;20042;-83
2023/09/07 11:06:03;;;;;;;8.43;6.32;;;;;;;23.69;84.20;93149.84;5002464;28;20053;-83
2023/09/07 11:09:25;;;;;;;9.68;6.78;;;;;;;23.94;80.68;93146.91;5001196;28;20030;-82
2023/09/07 11:11:50;;;;;;;9.35;5.05;;;;;;;24.12;82.39;93142.66;5001563;28;20034;-83
2023/09/07 11:15:12;;;;;;;9.82;7.05;;;;;;;24.16;83.14;93138.16;5001370;28;20424;-83
2023/09/07 11:17:50;;;;;;;9.85;6.22;;;;;;;24.24;83.79;93139.78;5002735;28;20045;-83
2023/09/07 11:20:15;;;;;;;9.38;6.78;;;;;;;24.21;80.92;93137.06;5002026;28;20061;-82
2023/09/07 11:22:41;;;;;;;8.18;5.85;;;;;;;24.44;80.38;93137.84;5002583;28;20496;-82
2023/09/07 11:25:16;;;;;;;9.65;6.50;;;;;;;24.40;79.28;93138.91;5002591;28;20481;-82
2023/09/07 11:27:41;;;;;;;9.95;5.53;;;;;;;24.17;78.60;93130.88;5004311;28;20484;-82
2023/09/07 11:30:10;;;;;;;10.52;6.03;;;;;;;24.16;78.63;93132.00;5002216;28;20049;-81